sensor_id;sensor_type;location;lat;lon;timestamp;P1;durP1;ratioP1;P2;durP2;ratioP2
63046;SDS011;62025;39.238;9.126;2023-02-15T00:02:25;27.67;;;21.27;;
63046;SDS011;62025;39.238;9.126;2023-02-15T00:04:51;32.45;;;21.30;;
63046;SDS011;62025;39.238;9.126;2023-02-15T00:07:18;29.85;;;21.13;;
63046;SDS011;62025;39.238;9.126;2023-02-15T00:09:45;28.20;;;20.30;;
63046;SDS011;62025;39.238;9.126;2023-02-15T00:12:12;28.38;;;20.38;;
63046;SDS011;62025;39.238;9.126;2023-02-15T00:14:39;29.15;;;20.17;;
63046;SDS011;62025;39.238;9.126;2023-02-15T00:17:05;25.67;;;19.15;;
63046;SDS011;62025;39.238;9.126;2023-02-15T00:19:31;27.45;;;18.70;;
63046;SDS011;62025;39.238;9.126;2023-02-15T00:21:57;24.13;;;17.67;;
63046;SDS011;62025;39.238;9.126;2023-02-15T00:24:23;23.60;;;17.92;;
63046;SDS011;62025;39.238;9.126;2023-02-15T00:26:49;26.73;;;18.77;;
63046;SDS011;62025;39.238;9.126;2023-02-15T00:29:19;23.10;;;17.13;;
63046;SDS011;62025;39.238;9.126;2023-02-15T00:31:45;27.63;;;17.88;;
63046;SDS011;62025;39.238;9.126;2023-02-15T00:34:14;26.25;;;17.52;;
63046;SDS011;62025;39.238;9.126;2023-02-15T00:36:48;22.90;;;16.92;;
63046;SDS011;62025;39.238;9.126;2023-02-15T00:39:15;23.75;;;16.10;;
63046;SDS011;62025;39.238;9.126;2023-02-15T00:41:43;21.83;;;16.37;;
63046;SDS011;62025;39.238;9.126;2023-02-15T00:44:10;22.63;;;16.27;;
63046;SDS011;62025;39.238;9.126;2023-02-15T00:46:37;24.13;;;16.35;;
63046;SDS011;62025;39.238;9.126;2023-02-15T00:49:03;21.90;;;15.73;;
63046;SDS011;62025;39.238;9.126;2023-02-15T00:51:29;22.55;;;16.45;;
63046;SDS011;62025;39.238;9.126;2023-02-15T00:53:56;22.80;;;15.68;;
63046;SDS011;62025;39.238;9.126;2023-02-15T00:56:22;19.27;;;13.77;;
63046;SDS011;62025;39.238;9.126;2023-02-15T00:58:48;20.58;;;12.93;;
63046;SDS011;62025;39.238;9.126;2023-02-15T01:01:18;15.77;;;12.13;;
63046;SDS011;62025;39.238;9.126;2023-02-15T01:03:45;15.15;;;11.27;;
63046;SDS011;62025;39.238;9.126;2023-02-15T01:06:12;18.05;;;11.88;;
63046;SDS011;62025;39.238;9.126;2023-02-15T01:08:41;19.45;;;12.43;;
63046;SDS011;62025;39.238;9.126;2023-02-15T01:11:11;15.57;;;11.73;;
63046;SDS011;62025;39.238;9.126;2023-02-15T01:13:40;15.73;;;11.50;;
63046;SDS011;62025;39.238;9.126;2023-02-15T01:16:06;14.52;;;11.52;;
63046;SDS011;62025;39.238;9.126;2023-02-15T01:18:33;15.50;;;11.45;;
63046;SDS011;62025;39.238;9.126;2023-02-15T01:21:00;15.18;;;11.18;;
63046;SDS011;62025;39.238;9.126;2023-02-15T01:23:45;15.63;;;11.35;;
63046;SDS011;62025;39.238;9.126;2023-02-15T01:26:11;15.57;;;11.77;;
63046;SDS011;62025;39.238;9.126;2023-02-15T01:28:39;14.27;;;10.98;;
63046;SDS011;62025;39.238;9.126;2023-02-15T01:31:09;15.07;;;10.15;;
63046;SDS011;62025;39.238;9.126;2023-02-15T01:33:38;18.15;;;10.65;;
63046;SDS011;62025;39.238;9.126;2023-02-15T01:36:05;12.52;;;10.20;;
63046;SDS011;62025;39.238;9.126;2023-02-15T01:38:31;13.02;;;9.18;;
63046;SDS011;62025;39.238;9.126;2023-02-15T01:40:58;11.65;;;8.68;;
63046;SDS011;62025;39.238;9.126;2023-02-15T01:43:45;12.50;;;9.30;;
63046;SDS011;62025;39.238;9.126;2023-02-15T01:46:18;13.60;;;10.15;;
63046;SDS011;62025;39.238;9.126;2023-02-15T01:48:50;12.48;;;9.82;;
63046;SDS011;62025;39.238;9.126;2023-02-15T01:51:26;16.33;;;9.60;;
63046;SDS011;62025;39.238;9.126;2023-02-15T01:54:04;12.90;;;9.88;;
63046;SDS011;62025;39.238;9.126;2023-02-15T01:56:37;13.45;;;9.55;;
63046;SDS011;62025;39.238;9.126;2023-02-15T01:59:09;12.57;;;9.88;;
63046;SDS011;62025;39.238;9.126;2023-02-15T02:01:43;13.25;;;9.80;;
63046;SDS011;62025;39.238;9.126;2023-02-15T02:07:05;13.82;;;10.27;;
63046;SDS011;62025;39.238;9.126;2023-02-15T02:09:33;13.55;;;10.07;;
63046;SDS011;62025;39.238;9.126;2023-02-15T02:12:01;14.45;;;9.73;;
63046;SDS011;62025;39.238;9.126;2023-02-15T02:14:27;12.18;;;9.45;;
63046;SDS011;62025;39.238;9.126;2023-02-15T02:16:58;12.73;;;9.18;;
63046;SDS011;62025;39.238;9.126;2023-02-15T02:40:46;12.80;;;9.23;;
63046;SDS011;62025;39.238;9.126;2023-02-15T02:43:21;11.75;;;8.95;;
63046;SDS011;62025;39.238;9.126;2023-02-15T02:45:55;15.32;;;9.60;;
63046;SDS011;62025;39.238;9.126;2023-02-15T02:48:29;14.32;;;9.57;;
63046;SDS011;62025;39.238;9.126;2023-02-15T02:50:58;14.00;;;9.52;;
63046;SDS011;62025;39.238;9.126;2023-02-15T02:53:24;12.45;;;8.82;;
63046;SDS011;62025;39.238;9.126;2023-02-15T02:55:56;13.60;;;8.73;;
63046;SDS011;62025;39.238;9.126;2023-02-15T02:58:46;10.93;;;8.13;;
63046;SDS011;62025;39.238;9.126;2023-02-15T03:01:33;10.55;;;7.80;;
63046;SDS011;62025;39.238;9.126;2023-02-15T03:04:08;11.38;;;7.95;;
63046;SDS011;62025;39.238;9.126;2023-02-15T03:06:41;11.95;;;7.75;;
63046;SDS011;62025;39.238;9.126;2023-02-15T03:09:23;9.85;;;8.20;;
63046;SDS011;62025;39.238;9.126;2023-02-15T03:14:38;10.70;;;7.57;;
63046;SDS011;62025;39.238;9.126;2023-02-15T03:17:06;9.57;;;7.20;;
63046;SDS011;62025;39.238;9.126;2023-02-15T03:19:35;8.40;;;6.82;;
63046;SDS011;62025;39.238;9.126;2023-02-15T03:22:14;8.10;;;6.43;;
63046;SDS011;62025;39.238;9.126;2023-02-15T03:25:06;8.43;;;6.75;;
63046;SDS011;62025;39.238;9.126;2023-02-15T03:27:42;10.05;;;6.47;;
63046;SDS011;62025;39.238;9.126;2023-02-15T03:30:12;8.82;;;6.47;;
63046;SDS011;62025;39.238;9.126;2023-02-15T03:32:42;12.45;;;6.70;;
63046;SDS011;62025;39.238;9.126;2023-02-15T03:35:10;8.07;;;6.43;;
63046;SDS011;62025;39.238;9.126;2023-02-15T03:37:53;8.63;;;6.00;;
63046;SDS011;62025;39.238;9.126;2023-02-15T03:40:28;7.47;;;6.38;;
63046;SDS011;62025;39.238;9.126;2023-02-15T03:45:56;10.45;;;6.65;;
63046;SDS011;62025;39.238;9.126;2023-02-15T03:48:54;8.50;;;6.70;;
63046;SDS011;62025;39.238;9.126;2023-02-15T03:51:27;8.90;;;7.03;;
63046;SDS011;62025;39.238;9.126;2023-02-15T03:54:02;8.45;;;6.70;;
63046;SDS011;62025;39.238;9.126;2023-02-15T03:56:40;10.15;;;6.82;;
63046;SDS011;62025;39.238;9.126;2023-02-15T03:59:27;9.80;;;6.75;;
63046;SDS011;62025;39.238;9.126;2023-02-15T04:04:48;8.55;;;6.25;;
63046;SDS011;62025;39.238;9.126;2023-02-15T04:07:14;8.63;;;6.43;;
63046;SDS011;62025;39.238;9.126;2023-02-15T04:09:41;7.60;;;5.90;;
63046;SDS011;62025;39.238;9.126;2023-02-15T04:12:25;8.07;;;6.00;;
63046;SDS011;62025;39.238;9.126;2023-02-15T04:14:51;8.75;;;6.30;;
63046;SDS011;62025;39.238;9.126;2023-02-15T04:17:36;7.63;;;6.00;;
63046;SDS011;62025;39.238;9.126;2023-02-15T04:20:03;7.28;;;5.70;;
63046;SDS011;62025;39.238;9.126;2023-02-15T04:22:48;8.20;;;5.70;;
63046;SDS011;62025;39.238;9.126;2023-02-15T04:25:32;7.15;;;5.35;;
63046;SDS011;62025;39.238;9.126;2023-02-15T04:27:58;8.07;;;5.88;;
63046;SDS011;62025;39.238;9.126;2023-02-15T04:30:25;7.30;;;5.90;;
63046;SDS011;62025;39.238;9.126;2023-02-15T04:32:51;8.63;;;6.13;;
63046;SDS011;62025;39.238;9.126;2023-02-15T04:35:19;7.97;;;5.90;;
63046;SDS011;62025;39.238;9.126;2023-02-15T04:37:45;8.35;;;6.10;;
63046;SDS011;62025;39.238;9.126;2023-02-15T04:40:12;7.45;;;5.93;;
63046;SDS011;62025;39.238;9.126;2023-02-15T04:42:40;7.28;;;5.53;;
63046;SDS011;62025;39.238;9.126;2023-02-15T04:45:06;9.38;;;5.57;;
63046;SDS011;62025;39.238;9.126;2023-02-15T04:47:33;8.60;;;5.68;;
63046;SDS011;62025;39.238;9.126;2023-02-15T04:49:59;7.88;;;5.28;;
63046;SDS011;62025;39.238;9.126;2023-02-15T04:52:25;8.32;;;5.85;;
63046;SDS011;62025;39.238;9.126;2023-02-15T04:54:51;11.60;;;6.10;;
63046;SDS011;62025;39.238;9.126;2023-02-15T04:57:17;9.68;;;6.05;;
63046;SDS011;62025;39.238;9.126;2023-02-15T04:59:43;7.95;;;6.13;;
63046;SDS011;62025;39.238;9.126;2023-02-15T05:02:09;10.48;;;6.25;;
63046;SDS011;62025;39.238;9.126;2023-02-15T05:04:35;7.53;;;6.07;;
63046;SDS011;62025;39.238;9.126;2023-02-15T05:07:01;8.30;;;6.38;;
63046;SDS011;62025;39.238;9.126;2023-02-15T05:09:27;8.43;;;6.40;;
63046;SDS011;62025;39.238;9.126;2023-02-15T05:11:53;9.75;;;6.72;;
63046;SDS011;62025;39.238;9.126;2023-02-15T05:14:19;9.82;;;6.32;;
63046;SDS011;62025;39.238;9.126;2023-02-15T05:16:45;10.60;;;6.68;;
63046;SDS011;62025;39.238;9.126;2023-02-15T05:19:11;10.60;;;7.13;;
63046;SDS011;62025;39.238;9.126;2023-02-15T05:21:37;9.30;;;7.43;;
63046;SDS011;62025;39.238;9.126;2023-02-15T05:24:03;10.05;;;7.22;;
63046;SDS011;62025;39.238;9.126;2023-02-15T05:26:49;10.98;;;7.53;;
63046;SDS011;62025;39.238;9.126;2023-02-15T05:29:33;10.68;;;7.68;;
63046;SDS011;62025;39.238;9.126;2023-02-15T05:32:00;15.75;;;7.85;;
63046;SDS011;62025;39.238;9.126;2023-02-15T05:34:26;12.45;;;8.05;;
63046;SDS011;62025;39.238;9.126;2023-02-15T05:36:52;10.73;;;8.30;;
63046;SDS011;62025;39.238;9.126;2023-02-15T05:39:18;13.07;;;8.73;;
63046;SDS011;62025;39.238;9.126;2023-02-15T05:41:51;12.55;;;8.80;;
63046;SDS011;62025;39.238;9.126;2023-02-15T05:44:17;12.45;;;8.05;;
63046;SDS011;62025;39.238;9.126;2023-02-15T05:46:43;13.00;;;9.20;;
63046;SDS011;62025;39.238;9.126;2023-02-15T05:49:09;17.08;;;8.90;;
63046;SDS011;62025;39.238;9.126;2023-02-15T05:51:35;12.32;;;8.55;;
63046;SDS011;62025;39.238;9.126;2023-02-15T05:54:01;12.00;;;8.77;;
63046;SDS011;62025;39.238;9.126;2023-02-15T05:56:27;11.05;;;8.15;;
63046;SDS011;62025;39.238;9.126;2023-02-15T05:58:52;10.38;;;8.05;;
63046;SDS011;62025;39.238;9.126;2023-02-15T06:01:19;12.75;;;9.20;;
63046;SDS011;62025;39.238;9.126;2023-02-15T06:03:48;13.25;;;9.00;;
63046;SDS011;62025;39.238;9.126;2023-02-15T06:06:14;14.48;;;9.13;;
63046;SDS011;62025;39.238;9.126;2023-02-15T06:08:40;14.95;;;8.93;;
63046;SDS011;62025;39.238;9.126;2023-02-15T06:11:07;11.32;;;8.77;;
63046;SDS011;62025;39.238;9.126;2023-02-15T06:13:33;10.15;;;8.25;;
63046;SDS011;62025;39.238;9.126;2023-02-15T06:16:00;11.13;;;8.15;;
63046;SDS011;62025;39.238;9.126;2023-02-15T06:18:26;13.07;;;8.57;;
63046;SDS011;62025;39.238;9.126;2023-02-15T06:20:52;11.18;;;8.15;;
63046;SDS011;62025;39.238;9.126;2023-02-15T06:23:18;10.52;;;8.18;;
63046;SDS011;62025;39.238;9.126;2023-02-15T06:25:45;16.02;;;8.80;;
63046;SDS011;62025;39.238;9.126;2023-02-15T06:28:11;14.57;;;9.38;;
63046;SDS011;62025;39.238;9.126;2023-02-15T06:30:38;14.77;;;9.18;;
63046;SDS011;62025;39.238;9.126;2023-02-15T06:33:04;11.93;;;9.00;;
63046;SDS011;62025;39.238;9.126;2023-02-15T06:35:30;13.13;;;9.00;;
63046;SDS011;62025;39.238;9.126;2023-02-15T06:37:56;13.18;;;8.63;;
63046;SDS011;62025;39.238;9.126;2023-02-15T06:40:22;14.48;;;8.40;;
63046;SDS011;62025;39.238;9.126;2023-02-15T06:42:48;13.18;;;8.80;;
63046;SDS011;62025;39.238;9.126;2023-02-15T06:45:14;9.13;;;7.38;;
63046;SDS011;62025;39.238;9.126;2023-02-15T06:47:40;10.50;;;7.75;;
63046;SDS011;62025;39.238;9.126;2023-02-15T06:50:06;10.30;;;7.57;;
63046;SDS011;62025;39.238;9.126;2023-02-15T06:52:33;14.75;;;8.15;;
63046;SDS011;62025;39.238;9.126;2023-02-15T06:54:59;10.68;;;7.90;;
63046;SDS011;62025;39.238;9.126;2023-02-15T06:57:25;10.15;;;7.68;;
63046;SDS011;62025;39.238;9.126;2023-02-15T06:59:51;11.88;;;8.07;;
63046;SDS011;62025;39.238;9.126;2023-02-15T07:02:17;13.60;;;8.13;;
63046;SDS011;62025;39.238;9.126;2023-02-15T07:04:44;12.45;;;8.30;;
63046;SDS011;62025;39.238;9.126;2023-02-15T07:07:10;17.88;;;11.88;;
63046;SDS011;62025;39.238;9.126;2023-02-15T07:09:37;23.58;;;14.18;;
63046;SDS011;62025;39.238;9.126;2023-02-15T07:12:04;32.83;;;19.63;;
63046;SDS011;62025;39.238;9.126;2023-02-15T07:14:50;25.05;;;14.77;;
63046;SDS011;62025;39.238;9.126;2023-02-15T07:17:16;29.67;;;17.40;;
63046;SDS011;62025;39.238;9.126;2023-02-15T07:19:43;28.67;;;16.88;;
63046;SDS011;62025;39.238;9.126;2023-02-15T07:22:09;39.42;;;19.10;;
63046;SDS011;62025;39.238;9.126;2023-02-15T07:24:35;31.95;;;15.90;;
63046;SDS011;62025;39.238;9.126;2023-02-15T07:27:01;21.00;;;13.80;;
63046;SDS011;62025;39.238;9.126;2023-02-15T07:29:27;20.38;;;13.20;;
63046;SDS011;62025;39.238;9.126;2023-02-15T07:31:53;20.13;;;13.50;;
63046;SDS011;62025;39.238;9.126;2023-02-15T07:34:20;26.60;;;13.88;;
63046;SDS011;62025;39.238;9.126;2023-02-15T07:36:46;23.63;;;13.25;;
63046;SDS011;62025;39.238;9.126;2023-02-15T07:39:12;29.17;;;15.25;;
63046;SDS011;62025;39.238;9.126;2023-02-15T07:41:38;26.05;;;13.27;;
63046;SDS011;62025;39.238;9.126;2023-02-15T07:44:14;19.27;;;9.93;;
63046;SDS011;62025;39.238;9.126;2023-02-15T07:46:40;14.75;;;8.98;;
63046;SDS011;62025;39.238;9.126;2023-02-15T07:49:07;12.93;;;8.23;;
63046;SDS011;62025;39.238;9.126;2023-02-15T07:51:33;15.48;;;9.73;;
63046;SDS011;62025;39.238;9.126;2023-02-15T07:53:59;11.32;;;8.70;;
63046;SDS011;62025;39.238;9.126;2023-02-15T07:56:25;17.05;;;10.95;;
63046;SDS011;62025;39.238;9.126;2023-02-15T07:58:51;15.40;;;10.20;;
63046;SDS011;62025;39.238;9.126;2023-02-15T08:01:18;15.35;;;9.98;;
63046;SDS011;62025;39.238;9.126;2023-02-15T08:03:50;15.07;;;9.00;;
63046;SDS011;62025;39.238;9.126;2023-02-15T08:06:16;12.85;;;9.20;;
63046;SDS011;62025;39.238;9.126;2023-02-15T08:08:42;17.08;;;9.07;;
63046;SDS011;62025;39.238;9.126;2023-02-15T08:19:23;14.02;;;9.35;;
63046;SDS011;62025;39.238;9.126;2023-02-15T08:21:55;14.50;;;9.30;;
63046;SDS011;62025;39.238;9.126;2023-02-15T08:24:26;11.00;;;8.55;;
63046;SDS011;62025;39.238;9.126;2023-02-15T08:26:55;10.60;;;8.50;;
63046;SDS011;62025;39.238;9.126;2023-02-15T08:29:23;9.65;;;7.72;;
63046;SDS011;62025;39.238;9.126;2023-02-15T08:31:53;9.35;;;7.38;;
63046;SDS011;62025;39.238;9.126;2023-02-15T08:34:27;10.95;;;8.00;;
63046;SDS011;62025;39.238;9.126;2023-02-15T08:36:59;10.32;;;7.68;;
63046;SDS011;62025;39.238;9.126;2023-02-15T08:39:26;12.95;;;7.53;;
63046;SDS011;62025;39.238;9.126;2023-02-15T08:41:52;11.13;;;7.28;;
63046;SDS011;62025;39.238;9.126;2023-02-15T08:44:18;10.65;;;7.88;;
63046;SDS011;62025;39.238;9.126;2023-02-15T08:46:45;10.20;;;7.95;;
63046;SDS011;62025;39.238;9.126;2023-02-15T08:49:17;13.48;;;9.00;;
63046;SDS011;62025;39.238;9.126;2023-02-15T08:51:46;12.85;;;8.85;;
63046;SDS011;62025;39.238;9.126;2023-02-15T08:54:15;13.30;;;8.45;;
63046;SDS011;62025;39.238;9.126;2023-02-15T08:56:44;11.20;;;7.47;;
63046;SDS011;62025;39.238;9.126;2023-02-15T08:59:13;9.02;;;7.13;;
63046;SDS011;62025;39.238;9.126;2023-02-15T09:01:48;10.00;;;7.57;;
63046;SDS011;62025;39.238;9.126;2023-02-15T09:04:16;14.43;;;10.32;;
63046;SDS011;62025;39.238;9.126;2023-02-15T09:06:43;13.98;;;9.57;;
63046;SDS011;62025;39.238;9.126;2023-02-15T09:09:11;10.77;;;7.30;;
63046;SDS011;62025;39.238;9.126;2023-02-15T09:11:39;10.32;;;7.85;;
63046;SDS011;62025;39.238;9.126;2023-02-15T09:14:12;11.95;;;7.65;;
63046;SDS011;62025;39.238;9.126;2023-02-15T09:16:43;13.10;;;7.53;;
63046;SDS011;62025;39.238;9.126;2023-02-15T09:19:14;9.40;;;7.32;;
63046;SDS011;62025;39.238;9.126;2023-02-15T09:21:42;9.43;;;7.13;;
63046;SDS011;62025;39.238;9.126;2023-02-15T09:24:09;11.50;;;8.25;;
63046;SDS011;62025;39.238;9.126;2023-02-15T09:29:06;10.45;;;6.85;;
63046;SDS011;62025;39.238;9.126;2023-02-15T09:31:34;11.77;;;7.82;;
63046;SDS011;62025;39.238;9.126;2023-02-15T09:34:06;13.30;;;7.40;;
63046;SDS011;62025;39.238;9.126;2023-02-15T09:36:33;10.95;;;7.80;;
63046;SDS011;62025;39.238;9.126;2023-02-15T09:39:10;16.13;;;8.20;;
63046;SDS011;62025;39.238;9.126;2023-02-15T09:45:07;12.02;;;7.95;;
63046;SDS011;62025;39.238;9.126;2023-02-15T09:59:06;11.95;;;7.30;;
63046;SDS011;62025;39.238;9.126;2023-02-15T10:19:48;10.95;;;7.75;;
63046;SDS011;62025;39.238;9.126;2023-02-15T10:26:18;12.10;;;7.20;;
63046;SDS011;62025;39.238;9.126;2023-02-15T10:28:58;12.93;;;7.20;;
63046;SDS011;62025;39.238;9.126;2023-02-15T10:31:50;11.43;;;6.78;;
63046;SDS011;62025;39.238;9.126;2023-02-15T10:34:47;11.93;;;7.35;;
63046;SDS011;62025;39.238;9.126;2023-02-15T10:49:21;9.60;;;6.68;;
63046;SDS011;62025;39.238;9.126;2023-02-15T11:06:49;10.13;;;6.18;;
63046;SDS011;62025;39.238;9.126;2023-02-15T11:09:20;7.65;;;4.68;;
63046;SDS011;62025;39.238;9.126;2023-02-15T11:11:49;6.40;;;4.43;;
63046;SDS011;62025;39.238;9.126;2023-02-15T11:14:23;6.75;;;4.40;;
63046;SDS011;62025;39.238;9.126;2023-02-15T11:17:01;7.75;;;4.25;;
63046;SDS011;62025;39.238;9.126;2023-02-15T11:19:41;7.60;;;4.55;;
63046;SDS011;62025;39.238;9.126;2023-02-15T11:22:21;5.72;;;4.03;;
63046;SDS011;62025;39.238;9.126;2023-02-15T11:24:47;5.80;;;4.32;;
63046;SDS011;62025;39.238;9.126;2023-02-15T11:32:31;9.20;;;5.35;;
63046;SDS011;62025;39.238;9.126;2023-02-15T11:35:10;7.85;;;4.85;;
63046;SDS011;62025;39.238;9.126;2023-02-15T11:43:23;6.95;;;4.70;;
63046;SDS011;62025;39.238;9.126;2023-02-15T11:45:59;6.05;;;4.82;;
63046;SDS011;62025;39.238;9.126;2023-02-15T11:48:25;5.60;;;5.03;;
63046;SDS011;62025;39.238;9.126;2023-02-15T11:50:51;6.63;;;4.85;;
63046;SDS011;62025;39.238;9.126;2023-02-15T11:53:20;6.55;;;4.45;;
63046;SDS011;62025;39.238;9.126;2023-02-15T11:55:53;5.18;;;4.60;;
63046;SDS011;62025;39.238;9.126;2023-02-15T12:04:09;6.57;;;4.90;;
63046;SDS011;62025;39.238;9.126;2023-02-15T12:06:53;6.80;;;4.95;;
63046;SDS011;62025;39.238;9.126;2023-02-15T12:09:36;6.43;;;4.60;;
63046;SDS011;62025;39.238;9.126;2023-02-15T12:12:19;6.22;;;4.75;;
63046;SDS011;62025;39.238;9.126;2023-02-15T12:14:57;7.03;;;4.75;;
63046;SDS011;62025;39.238;9.126;2023-02-15T12:17:41;6.82;;;4.80;;
63046;SDS011;62025;39.238;9.126;2023-02-15T12:23:01;5.97;;;4.78;;
63046;SDS011;62025;39.238;9.126;2023-02-15T12:25:37;5.13;;;4.63;;
63046;SDS011;62025;39.238;9.126;2023-02-15T12:28:53;6.32;;;4.95;;
63046;SDS011;62025;39.238;9.126;2023-02-15T12:31:03;5.95;;;4.68;;
63046;SDS011;62025;39.238;9.126;2023-02-15T12:33:44;7.72;;;5.28;;
63046;SDS011;62025;39.238;9.126;2023-02-15T12:38:48;9.75;;;4.65;;
63046;SDS011;62025;39.238;9.126;2023-02-15T12:44:25;7.70;;;4.35;;
63046;SDS011;62025;39.238;9.126;2023-02-15T12:49:33;6.20;;;4.78;;
63046;SDS011;62025;39.238;9.126;2023-02-15T12:54:43;7.13;;;4.55;;
63046;SDS011;62025;39.238;9.126;2023-02-15T13:02:53;7.70;;;5.00;;
63046;SDS011;62025;39.238;9.126;2023-02-15T13:05:25;7.03;;;4.70;;
63046;SDS011;62025;39.238;9.126;2023-02-15T13:08:12;6.50;;;4.28;;
63046;SDS011;62025;39.238;9.126;2023-02-15T13:10:53;5.57;;;4.20;;
63046;SDS011;62025;39.238;9.126;2023-02-15T13:13:33;6.63;;;4.60;;
63046;SDS011;62025;39.238;9.126;2023-02-15T13:16:04;5.65;;;4.60;;
63046;SDS011;62025;39.238;9.126;2023-02-15T13:18:38;5.95;;;4.43;;
63046;SDS011;62025;39.238;9.126;2023-02-15T13:21:14;6.40;;;4.90;;
63046;SDS011;62025;39.238;9.126;2023-02-15T13:23:47;5.70;;;4.22;;
63046;SDS011;62025;39.238;9.126;2023-02-15T13:26:18;7.50;;;4.53;;
63046;SDS011;62025;39.238;9.126;2023-02-15T13:28:53;5.32;;;4.30;;
63046;SDS011;62025;39.238;9.126;2023-02-15T13:31:23;6.35;;;4.20;;
63046;SDS011;62025;39.238;9.126;2023-02-15T13:34:03;8.52;;;4.30;;
63046;SDS011;62025;39.238;9.126;2023-02-15T13:40:18;7.22;;;4.80;;
63046;SDS011;62025;39.238;9.126;2023-02-15T13:46:13;6.57;;;4.50;;
63046;SDS011;62025;39.238;9.126;2023-02-15T13:49:07;6.32;;;4.30;;
63046;SDS011;62025;39.238;9.126;2023-02-15T14:12:24;5.95;;;3.90;;
63046;SDS011;62025;39.238;9.126;2023-02-15T14:27:15;5.43;;;4.10;;
63046;SDS011;62025;39.238;9.126;2023-02-15T14:30:30;11.15;;;4.80;;
63046;SDS011;62025;39.238;9.126;2023-02-15T14:33:08;5.38;;;4.20;;
63046;SDS011;62025;39.238;9.126;2023-02-15T14:35:56;5.15;;;4.25;;
63046;SDS011;62025;39.238;9.126;2023-02-15T14:41:42;9.52;;;4.40;;
63046;SDS011;62025;39.238;9.126;2023-02-15T14:49:21;4.70;;;4.20;;
63046;SDS011;62025;39.238;9.126;2023-02-15T15:05:08;7.82;;;5.05;;
63046;SDS011;62025;39.238;9.126;2023-02-15T15:07:58;7.05;;;4.85;;
63046;SDS011;62025;39.238;9.126;2023-02-15T15:13:35;8.13;;;4.78;;
63046;SDS011;62025;39.238;9.126;2023-02-15T15:15:56;7.63;;;4.45;;
63046;SDS011;62025;39.238;9.126;2023-02-15T15:18:51;6.07;;;4.85;;
63046;SDS011;62025;39.238;9.126;2023-02-15T15:35:49;6.93;;;4.30;;
63046;SDS011;62025;39.238;9.126;2023-02-15T15:44:55;9.95;;;4.70;;
63046;SDS011;62025;39.238;9.126;2023-02-15T15:50:47;5.20;;;4.35;;
63046;SDS011;62025;39.238;9.126;2023-02-15T15:53:25;7.22;;;4.30;;
63046;SDS011;62025;39.238;9.126;2023-02-15T15:55:58;5.75;;;4.30;;
63046;SDS011;62025;39.238;9.126;2023-02-15T15:58:29;6.38;;;4.70;;
63046;SDS011;62025;39.238;9.126;2023-02-15T16:01:10;5.38;;;4.28;;
63046;SDS011;62025;39.238;9.126;2023-02-15T16:03:53;6.75;;;4.57;;
63046;SDS011;62025;39.238;9.126;2023-02-15T16:06:54;5.57;;;4.53;;
63046;SDS011;62025;39.238;9.126;2023-02-15T16:09:18;9.25;;;5.30;;
63046;SDS011;62025;39.238;9.126;2023-02-15T16:11:51;6.95;;;4.60;;
63046;SDS011;62025;39.238;9.126;2023-02-15T16:14:31;6.60;;;5.00;;
63046;SDS011;62025;39.238;9.126;2023-02-15T16:17:03;6.75;;;4.75;;
63046;SDS011;62025;39.238;9.126;2023-02-15T16:19:33;6.57;;;4.90;;
63046;SDS011;62025;39.238;9.126;2023-02-15T16:22:04;7.18;;;4.90;;
63046;SDS011;62025;39.238;9.126;2023-02-15T16:27:29;9.05;;;4.78;;
63046;SDS011;62025;39.238;9.126;2023-02-15T16:32:46;8.60;;;5.20;;
63046;SDS011;62025;39.238;9.126;2023-02-15T16:35:14;7.80;;;5.05;;
63046;SDS011;62025;39.238;9.126;2023-02-15T16:37:43;11.27;;;5.20;;
63046;SDS011;62025;39.238;9.126;2023-02-15T16:40:25;8.07;;;5.50;;
63046;SDS011;62025;39.238;9.126;2023-02-15T16:43:05;7.35;;;5.43;;
63046;SDS011;62025;39.238;9.126;2023-02-15T16:45:37;8.48;;;6.40;;
63046;SDS011;62025;39.238;9.126;2023-02-15T16:48:05;8.27;;;6.55;;
63046;SDS011;62025;39.238;9.126;2023-02-15T16:50:46;7.47;;;5.72;;
63046;SDS011;62025;39.238;9.126;2023-02-15T16:53:19;5.90;;;5.00;;
63046;SDS011;62025;39.238;9.126;2023-02-15T16:55:50;9.43;;;5.78;;
63046;SDS011;62025;39.238;9.126;2023-02-15T16:58:22;5.75;;;4.88;;
63046;SDS011;62025;39.238;9.126;2023-02-15T17:00:58;8.05;;;4.88;;
63046;SDS011;62025;39.238;9.126;2023-02-15T17:03:26;13.93;;;5.93;;
63046;SDS011;62025;39.238;9.126;2023-02-15T17:05:57;8.40;;;5.20;;
63046;SDS011;62025;39.238;9.126;2023-02-15T17:08:34;8.98;;;5.80;;
63046;SDS011;62025;39.238;9.126;2023-02-15T17:16:40;10.18;;;6.10;;
63046;SDS011;62025;39.238;9.126;2023-02-15T17:21:50;11.10;;;5.97;;
63046;SDS011;62025;39.238;9.126;2023-02-15T17:26:57;9.50;;;6.20;;
63046;SDS011;62025;39.238;9.126;2023-02-15T17:29:37;8.25;;;6.85;;
63046;SDS011;62025;39.238;9.126;2023-02-15T17:32:13;9.38;;;6.90;;
63046;SDS011;62025;39.238;9.126;2023-02-15T17:40:14;11.45;;;8.18;;
63046;SDS011;62025;39.238;9.126;2023-02-15T17:42:51;11.80;;;8.18;;
63046;SDS011;62025;39.238;9.126;2023-02-15T17:45:18;10.20;;;7.93;;
63046;SDS011;62025;39.238;9.126;2023-02-15T17:47:46;10.65;;;7.65;;
63046;SDS011;62025;39.238;9.126;2023-02-15T17:50:24;14.63;;;9.67;;
63046;SDS011;62025;39.238;9.126;2023-02-15T17:52:52;11.25;;;8.30;;
63046;SDS011;62025;39.238;9.126;2023-02-15T17:55:22;11.35;;;7.45;;
63046;SDS011;62025;39.238;9.126;2023-02-15T17:58:13;9.13;;;7.15;;
63046;SDS011;62025;39.238;9.126;2023-02-15T18:01:03;9.95;;;7.72;;
63046;SDS011;62025;39.238;9.126;2023-02-15T18:03:59;10.32;;;7.25;;
63046;SDS011;62025;39.238;9.126;2023-02-15T18:06:44;11.10;;;7.47;;
63046;SDS011;62025;39.238;9.126;2023-02-15T18:09:28;11.40;;;6.70;;
63046;SDS011;62025;39.238;9.126;2023-02-15T18:14:54;9.35;;;6.70;;
63046;SDS011;62025;39.238;9.126;2023-02-15T18:17:23;12.73;;;7.07;;
63046;SDS011;62025;39.238;9.126;2023-02-15T18:19:54;8.60;;;7.00;;
63046;SDS011;62025;39.238;9.126;2023-02-15T18:22:20;10.50;;;6.95;;
63046;SDS011;62025;39.238;9.126;2023-02-15T18:24:47;11.18;;;7.95;;
63046;SDS011;62025;39.238;9.126;2023-02-15T18:27:14;8.25;;;6.85;;
63046;SDS011;62025;39.238;9.126;2023-02-15T18:29:41;10.00;;;7.28;;
63046;SDS011;62025;39.238;9.126;2023-02-15T18:32:08;9.05;;;6.90;;
63046;SDS011;62025;39.238;9.126;2023-02-15T18:34:41;11.00;;;8.18;;
63046;SDS011;62025;39.238;9.126;2023-02-15T18:37:16;14.82;;;9.02;;
63046;SDS011;62025;39.238;9.126;2023-02-15T18:39:46;10.85;;;8.55;;
63046;SDS011;62025;39.238;9.126;2023-02-15T18:42:22;10.88;;;8.20;;
63046;SDS011;62025;39.238;9.126;2023-02-15T18:44:58;10.55;;;7.72;;
63046;SDS011;62025;39.238;9.126;2023-02-15T18:47:29;11.52;;;8.25;;
63046;SDS011;62025;39.238;9.126;2023-02-15T18:49:55;12.07;;;8.38;;
63046;SDS011;62025;39.238;9.126;2023-02-15T18:52:22;11.05;;;7.38;;
63046;SDS011;62025;39.238;9.126;2023-02-15T18:54:57;8.80;;;7.22;;
63046;SDS011;62025;39.238;9.126;2023-02-15T18:57:26;9.18;;;6.90;;
63046;SDS011;62025;39.238;9.126;2023-02-15T18:59:53;10.18;;;6.47;;
63046;SDS011;62025;39.238;9.126;2023-02-15T19:02:19;9.50;;;5.95;;
63046;SDS011;62025;39.238;9.126;2023-02-15T19:04:45;11.25;;;7.47;;
63046;SDS011;62025;39.238;9.126;2023-02-15T19:07:21;11.50;;;8.93;;
63046;SDS011;62025;39.238;9.126;2023-02-15T19:09:54;13.60;;;9.48;;
63046;SDS011;62025;39.238;9.126;2023-02-15T19:12:23;13.00;;;9.48;;
63046;SDS011;62025;39.238;9.126;2023-02-15T19:14:50;14.07;;;9.13;;
63046;SDS011;62025;39.238;9.126;2023-02-15T19:17:18;14.77;;;9.25;;
63046;SDS011;62025;39.238;9.126;2023-02-15T19:19:46;18.42;;;11.32;;
63046;SDS011;62025;39.238;9.126;2023-02-15T19:22:13;16.90;;;10.35;;